Cedar Creek (Missouri), Pleasant View (06919500)

StateMissouriLatestPoor (77 cfs)
RiverCedar CreekRatingObservedEstimated
Updated2026-05-10 16:30 (58 minutes ago)Flood - The river is flooding. Obstacles can be treacherous or deadly. The river should be avoided at this stage for casual trips and definitely for the inexperienced. Trips should be attempted only with protective gear and equipment.Flood(none)1844
Discharge77 cfs (median: 185 cfs)High - The river is high and potentially dangerous, especially for the young and / or inexperienced. Normal stream obstacles are sometimes difficult to navigate. Extended distances can be attempted, but canoe travel may not be advisable.High(none)478
Height3.69 feetGood - Conditions are ideal for a canoe or kayak. Boats typically will drag on fewer than one-quarter of riffles, if at all, and portages are unnecessary or rare. Normal float lengths can be attempted without a problem.Good(none)165
TrendFalling (falling over 24 hours)Low - River is low but can still be floated. Some riffles are okay but most come with significant dragging and might need a portage. Float lengths should be reduced to accommodate low flow, dragging, and portages.Low(none)88
USGSExternal icon USGS Site (External icon Duck Duck Go Maps)Poor - River is too low to float comfortably. Most or all riffles will drag or must be portaged and some obstacles (such as slick shelf rock) cause undue problems. Avoid the river at this stage for casual paddling trips.Poor(none)6

Trending Data

Plot Image

Trips for Cedar Creek (Missouri), Pleasant View (06919500)

DateStartEndDistanceConditionDischargeHeightFishingDetails

A total of 0 rows are displayed.

Condition Descriptions

Fishing Conditions

Fish Species

Notes

Classic Trip List

The classic River Trips application is still available for use. It is updated with the new system using a data retrofit. It is no longer maintained. The original River Trips application is no longer updated (as of 1 Dec 2016) but can be checked for errors or for the condition of the data before it was converted to the new system.

Gauge Data Table

ObservationHeightDischargeMaximum
Discharge
Minimum
Discharge
Mean
Discharge
P05P10P20P25P50
(Median)
P75P80P90P95
2026-05-10 16:30 3.69 77 8400 (2002) 9 (1981) 678 25 40 53 58 185 461 675 1760 4640
2026-05-10 15:30 3.70 78 8400 (2002) 9 (1981) 678 25 40 53 58 185 461 675 1760 4640
2026-05-10 14:30 3.70 78 8400 (2002) 9 (1981) 678 25 40 53 58 185 461 675 1760 4640
2026-05-10 13:30 3.71 79 8400 (2002) 9 (1981) 678 25 40 53 58 185 461 675 1760 4640
2026-05-10 12:30 3.71 79 8400 (2002) 9 (1981) 678 25 40 53 58 185 461 675 1760 4640
2026-05-10 11:30 3.72 80 8400 (2002) 9 (1981) 678 25 40 53 58 185 461 675 1760 4640
2026-05-10 10:30 3.72 80 8400 (2002) 9 (1981) 678 25 40 53 58 185 461 675 1760 4640
2026-05-10 09:30 3.73 81 8400 (2002) 9 (1981) 678 25 40 53 58 185 461 675 1760 4640
2026-05-10 08:30 3.74 83 8400 (2002) 9 (1981) 678 25 40 53 58 185 461 675 1760 4640
2026-05-10 07:30 3.74 83 8400 (2002) 9 (1981) 678 25 40 53 58 185 461 675 1760 4640
2026-05-10 06:30 3.75 84 8400 (2002) 9 (1981) 678 25 40 53 58 185 461 675 1760 4640
2026-05-10 05:30 3.75 84 8400 (2002) 9 (1981) 678 25 40 53 58 185 461 675 1760 4640
2026-05-10 04:30 3.76 85 8400 (2002) 9 (1981) 678 25 40 53 58 185 461 675 1760 4640
2026-05-10 03:30 3.77 87 8400 (2002) 9 (1981) 678 25 40 53 58 185 461 675 1760 4640
2026-05-10 02:30 3.77 87 8400 (2002) 9 (1981) 678 25 40 53 58 185 461 675 1760 4640
2026-05-10 01:30 3.78 88 8400 (2002) 9 (1981) 678 25 40 53 58 185 461 675 1760 4640
2026-05-10 00:30 3.79 89 8400 (2002) 9 (1981) 678 25 40 53 58 185 461 675 1760 4640
2026-05-09 23:30 3.80 90 8400 (2002) 9 (1981) 678 25 40 53 58 185 461 675 1760 4640
2026-05-09 22:30 3.80 90 12800 (2009) 7 (1981) 988 26 40 54 58 183 529 798 2700 8740
2026-05-09 21:30 3.81 92 12800 (2009) 7 (1981) 988 26 40 54 58 183 529 798 2700 8740
2026-05-09 20:30 3.82 93 12800 (2009) 7 (1981) 988 26 40 54 58 183 529 798 2700 8740
2026-05-09 19:30 3.83 95 12800 (2009) 7 (1981) 988 26 40 54 58 183 529 798 2700 8740
2026-05-09 18:30 3.84 96 12800 (2009) 7 (1981) 988 26 40 54 58 183 529 798 2700 8740
2026-05-09 17:30 3.86 99 12800 (2009) 7 (1981) 988 26 40 54 58 183 529 798 2700 8740
2026-05-09 16:30 3.87 100 12800 (2009) 7 (1981) 988 26 40 54 58 183 529 798 2700 8740
2026-05-09 15:30 3.88 102 12800 (2009) 7 (1981) 988 26 40 54 58 183 529 798 2700 8740
2026-05-09 14:30 3.90 104 12800 (2009) 7 (1981) 988 26 40 54 58 183 529 798 2700 8740
2026-05-09 13:30 3.91 106 12800 (2009) 7 (1981) 988 26 40 54 58 183 529 798 2700 8740
2026-05-09 12:30 3.93 109 12800 (2009) 7 (1981) 988 26 40 54 58 183 529 798 2700 8740
2026-05-09 11:30 3.95 112 12800 (2009) 7 (1981) 988 26 40 54 58 183 529 798 2700 8740
2026-05-09 10:30 3.97 115 12800 (2009) 7 (1981) 988 26 40 54 58 183 529 798 2700 8740
2026-05-09 09:30 3.98 117 12800 (2009) 7 (1981) 988 26 40 54 58 183 529 798 2700 8740
2026-05-09 08:30 3.99 118 12800 (2009) 7 (1981) 988 26 40 54 58 183 529 798 2700 8740
2026-05-09 07:30 4.00 120 12800 (2009) 7 (1981) 988 26 40 54 58 183 529 798 2700 8740
2026-05-09 06:30 3.99 118 12800 (2009) 7 (1981) 988 26 40 54 58 183 529 798 2700 8740
2026-05-09 05:30 3.97 115 12800 (2009) 7 (1981) 988 26 40 54 58 183 529 798 2700 8740
2026-05-09 04:30 3.94 110 12800 (2009) 7 (1981) 988 26 40 54 58 183 529 798 2700 8740
2026-05-09 03:30 3.91 106 12800 (2009) 7 (1981) 988 26 40 54 58 183 529 798 2700 8740
2026-05-09 02:30 3.90 104 12800 (2009) 7 (1981) 988 26 40 54 58 183 529 798 2700 8740
2026-05-09 01:30 3.89 103 12800 (2009) 7 (1981) 988 26 40 54 58 183 529 798 2700 8740
2026-05-09 00:30 3.87 100 12800 (2009) 7 (1981) 988 26 40 54 58 183 529 798 2700 8740
2026-05-08 23:30 3.84 96 12800 (2009) 7 (1981) 988 26 40 54 58 183 529 798 2700 8740
2026-05-08 22:30 3.83 95 9290 (1961) 3 (1956) 1050 17 31 51 59 164 601 825 5070 7020
2026-05-08 21:30 3.82 93 9290 (1961) 3 (1956) 1050 17 31 51 59 164 601 825 5070 7020
2026-05-08 20:30 3.81 92 9290 (1961) 3 (1956) 1050 17 31 51 59 164 601 825 5070 7020
2026-05-08 19:30 3.77 87 9290 (1961) 3 (1956) 1050 17 31 51 59 164 601 825 5070 7020
2026-05-08 18:30 3.77 87 9290 (1961) 3 (1956) 1050 17 31 51 59 164 601 825 5070 7020
2026-05-08 17:30 3.77 87 9290 (1961) 3 (1956) 1050 17 31 51 59 164 601 825 5070 7020
2026-05-08 16:30 3.77 87 9290 (1961) 3 (1956) 1050 17 31 51 59 164 601 825 5070 7020
2026-05-08 15:30 3.77 87 9290 (1961) 3 (1956) 1050 17 31 51 59 164 601 825 5070 7020
2026-05-08 14:30 3.78 88 9290 (1961) 3 (1956) 1050 17 31 51 59 164 601 825 5070 7020
2026-05-08 13:30 3.78 88 9290 (1961) 3 (1956) 1050 17 31 51 59 164 601 825 5070 7020
2026-05-08 12:30 3.78 88 9290 (1961) 3 (1956) 1050 17 31 51 59 164 601 825 5070 7020
2026-05-08 11:30 3.78 88 9290 (1961) 3 (1956) 1050 17 31 51 59 164 601 825 5070 7020
2026-05-08 10:30 3.79 89 9290 (1961) 3 (1956) 1050 17 31 51 59 164 601 825 5070 7020
2026-05-08 09:30 3.79 89 9290 (1961) 3 (1956) 1050 17 31 51 59 164 601 825 5070 7020
2026-05-08 08:30 3.79 89 9290 (1961) 3 (1956) 1050 17 31 51 59 164 601 825 5070 7020
2026-05-08 07:30 3.79 89 9290 (1961) 3 (1956) 1050 17 31 51 59 164 601 825 5070 7020
2026-05-08 06:30 3.80 90 9290 (1961) 3 (1956) 1050 17 31 51 59 164 601 825 5070 7020
2026-05-08 05:30 3.80 90 9290 (1961) 3 (1956) 1050 17 31 51 59 164 601 825 5070 7020
2026-05-08 04:30 3.80 90 9290 (1961) 3 (1956) 1050 17 31 51 59 164 601 825 5070 7020
2026-05-08 03:30 3.80 90 9290 (1961) 3 (1956) 1050 17 31 51 59 164 601 825 5070 7020
2026-05-08 02:30 3.81 92 9290 (1961) 3 (1956) 1050 17 31 51 59 164 601 825 5070 7020
2026-05-08 01:30 3.81 92 9290 (1961) 3 (1956) 1050 17 31 51 59 164 601 825 5070 7020
2026-05-08 00:30 3.81 92 9290 (1961) 3 (1956) 1050 17 31 51 59 164 601 825 5070 7020
2026-05-07 23:30 3.82 93 9290 (1961) 3 (1956) 1050 17 31 51 59 164 601 825 5070 7020
2026-05-07 22:30 3.82 93 11600 (1961) 3 (1956) 933 19 34 56 61 174 549 803 2580 6640
2026-05-07 21:30 3.82 93 11600 (1961) 3 (1956) 933 19 34 56 61 174 549 803 2580 6640
2026-05-07 20:30 3.82 93 11600 (1961) 3 (1956) 933 19 34 56 61 174 549 803 2580 6640
2026-05-07 19:30 3.83 95 11600 (1961) 3 (1956) 933 19 34 56 61 174 549 803 2580 6640
2026-05-07 18:30 3.84 96 11600 (1961) 3 (1956) 933 19 34 56 61 174 549 803 2580 6640
2026-05-07 17:30 3.84 96 11600 (1961) 3 (1956) 933 19 34 56 61 174 549 803 2580 6640
2026-05-07 16:30 3.84 96 11600 (1961) 3 (1956) 933 19 34 56 61 174 549 803 2580 6640
2026-05-07 15:30 3.84 96 11600 (1961) 3 (1956) 933 19 34 56 61 174 549 803 2580 6640
2026-05-07 14:30 3.85 97 11600 (1961) 3 (1956) 933 19 34 56 61 174 549 803 2580 6640
2026-05-07 13:30 3.85 97 11600 (1961) 3 (1956) 933 19 34 56 61 174 549 803 2580 6640
2026-05-07 12:30 3.86 99 11600 (1961) 3 (1956) 933 19 34 56 61 174 549 803 2580 6640
2026-05-07 11:30 3.86 99 11600 (1961) 3 (1956) 933 19 34 56 61 174 549 803 2580 6640
2026-05-07 10:30 3.86 99 11600 (1961) 3 (1956) 933 19 34 56 61 174 549 803 2580 6640
2026-05-07 09:30 3.87 100 11600 (1961) 3 (1956) 933 19 34 56 61 174 549 803 2580 6640
2026-05-07 08:30 3.88 102 11600 (1961) 3 (1956) 933 19 34 56 61 174 549 803 2580 6640
2026-05-07 07:30 3.88 102 11600 (1961) 3 (1956) 933 19 34 56 61 174 549 803 2580 6640
2026-05-07 06:30 3.88 102 11600 (1961) 3 (1956) 933 19 34 56 61 174 549 803 2580 6640
2026-05-07 05:30 3.88 102 11600 (1961) 3 (1956) 933 19 34 56 61 174 549 803 2580 6640
2026-05-07 04:30 3.88 102 11600 (1961) 3 (1956) 933 19 34 56 61 174 549 803 2580 6640
2026-05-07 03:30 3.89 103 11600 (1961) 3 (1956) 933 19 34 56 61 174 549 803 2580 6640
2026-05-07 02:30 3.89 103 11600 (1961) 3 (1956) 933 19 34 56 61 174 549 803 2580 6640
2026-05-07 01:30 3.90 104 11600 (1961) 3 (1956) 933 19 34 56 61 174 549 803 2580 6640
2026-05-07 00:30 3.90 104 11600 (1961) 3 (1956) 933 19 34 56 61 174 549 803 2580 6640
2026-05-06 23:30 3.90 104 11600 (1961) 3 (1956) 933 19 34 56 61 174 549 803 2580 6640
2026-05-06 22:30 3.91 106 21200 (1961) 4 (1956) 863 20 39 62 69 155 560 722 1290 5010
2026-05-06 21:30 3.91 106 21200 (1961) 4 (1956) 863 20 39 62 69 155 560 722 1290 5010
2026-05-06 20:30 3.91 106 21200 (1961) 4 (1956) 863 20 39 62 69 155 560 722 1290 5010
2026-05-06 19:30 3.91 106 21200 (1961) 4 (1956) 863 20 39 62 69 155 560 722 1290 5010
2026-05-06 18:30 3.92 107 21200 (1961) 4 (1956) 863 20 39 62 69 155 560 722 1290 5010
2026-05-06 17:30 3.93 109 21200 (1961) 4 (1956) 863 20 39 62 69 155 560 722 1290 5010
2026-05-06 16:30 3.93 109 21200 (1961) 4 (1956) 863 20 39 62 69 155 560 722 1290 5010
2026-05-06 15:30 3.93 109 21200 (1961) 4 (1956) 863 20 39 62 69 155 560 722 1290 5010
2026-05-06 14:30 3.93 109 21200 (1961) 4 (1956) 863 20 39 62 69 155 560 722 1290 5010
2026-05-06 13:30 3.93 109 21200 (1961) 4 (1956) 863 20 39 62 69 155 560 722 1290 5010
2026-05-06 12:30 3.94 110 21200 (1961) 4 (1956) 863 20 39 62 69 155 560 722 1290 5010
2026-05-06 11:30 3.95 112 21200 (1961) 4 (1956) 863 20 39 62 69 155 560 722 1290 5010
2026-05-06 10:30 3.95 112 21200 (1961) 4 (1956) 863 20 39 62 69 155 560 722 1290 5010
2026-05-06 09:30 3.95 112 21200 (1961) 4 (1956) 863 20 39 62 69 155 560 722 1290 5010
2026-05-06 08:30 3.95 112 21200 (1961) 4 (1956) 863 20 39 62 69 155 560 722 1290 5010
2026-05-06 07:30 3.95 112 21200 (1961) 4 (1956) 863 20 39 62 69 155 560 722 1290 5010
2026-05-06 06:30 3.96 113 21200 (1961) 4 (1956) 863 20 39 62 69 155 560 722 1290 5010
2026-05-06 05:30 3.96 113 21200 (1961) 4 (1956) 863 20 39 62 69 155 560 722 1290 5010
2026-05-06 04:30 3.96 113 21200 (1961) 4 (1956) 863 20 39 62 69 155 560 722 1290 5010
2026-05-06 03:30 3.97 115 21200 (1961) 4 (1956) 863 20 39 62 69 155 560 722 1290 5010
2026-05-06 02:30 3.97 115 21200 (1961) 4 (1956) 863 20 39 62 69 155 560 722 1290 5010
2026-05-06 01:30 3.97 115 21200 (1961) 4 (1956) 863 20 39 62 69 155 560 722 1290 5010
2026-05-06 00:30 3.97 115 21200 (1961) 4 (1956) 863 20 39 62 69 155 560 722 1290 5010
2026-05-05 23:30 3.97 115 21200 (1961) 4 (1956) 863 20 39 62 69 155 560 722 1290 5010
2026-05-05 22:30 3.98 117 9090 (1999) 3 (1956) 680 22 40 68 72 160 461 640 1670 4340
2026-05-05 21:30 3.97 115 9090 (1999) 3 (1956) 680 22 40 68 72 160 461 640 1670 4340
2026-05-05 20:30 3.96 113 9090 (1999) 3 (1956) 680 22 40 68 72 160 461 640 1670 4340
2026-05-05 19:30 3.97 115 9090 (1999) 3 (1956) 680 22 40 68 72 160 461 640 1670 4340
2026-05-05 18:30 3.97 115 9090 (1999) 3 (1956) 680 22 40 68 72 160 461 640 1670 4340
2026-05-05 17:30 3.97 115 9090 (1999) 3 (1956) 680 22 40 68 72 160 461 640 1670 4340
2026-05-05 16:30 3.98 117 9090 (1999) 3 (1956) 680 22 40 68 72 160 461 640 1670 4340
2026-05-05 15:30 3.98 117 9090 (1999) 3 (1956) 680 22 40 68 72 160 461 640 1670 4340
2026-05-05 14:30 3.99 118 9090 (1999) 3 (1956) 680 22 40 68 72 160 461 640 1670 4340
2026-05-05 13:30 3.99 118 9090 (1999) 3 (1956) 680 22 40 68 72 160 461 640 1670 4340
2026-05-05 12:30 4.00 120 9090 (1999) 3 (1956) 680 22 40 68 72 160 461 640 1670 4340
2026-05-05 11:30 4.00 120 9090 (1999) 3 (1956) 680 22 40 68 72 160 461 640 1670 4340
2026-05-05 10:30 4.01 121 9090 (1999) 3 (1956) 680 22 40 68 72 160 461 640 1670 4340
2026-05-05 09:30 4.01 121 9090 (1999) 3 (1956) 680 22 40 68 72 160 461 640 1670 4340
2026-05-05 08:30 4.02 123 9090 (1999) 3 (1956) 680 22 40 68 72 160 461 640 1670 4340
2026-05-05 07:30 4.02 123 9090 (1999) 3 (1956) 680 22 40 68 72 160 461 640 1670 4340
2026-05-05 06:30 4.03 125 9090 (1999) 3 (1956) 680 22 40 68 72 160 461 640 1670 4340
2026-05-05 05:30 4.03 125 9090 (1999) 3 (1956) 680 22 40 68 72 160 461 640 1670 4340
2026-05-05 04:30 4.04 126 9090 (1999) 3 (1956) 680 22 40 68 72 160 461 640 1670 4340
2026-05-05 03:30 4.05 128 9090 (1999) 3 (1956) 680 22 40 68 72 160 461 640 1670 4340
2026-05-05 02:30 4.04 126 9090 (1999) 3 (1956) 680 22 40 68 72 160 461 640 1670 4340
2026-05-05 01:30 4.05 128 9090 (1999) 3 (1956) 680 22 40 68 72 160 461 640 1670 4340
2026-05-05 00:30 4.05 128 9090 (1999) 3 (1956) 680 22 40 68 72 160 461 640 1670 4340
2026-05-04 23:30 4.06 129 9090 (1999) 3 (1956) 680 22 40 68 72 160 461 640 1670 4340
2026-05-04 22:30 4.07 130 9240 (2017) 3 (1956) 572 19 32 72 76 170 492 622 1350 3110
2026-05-04 21:30 4.07 130 9240 (2017) 3 (1956) 572 19 32 72 76 170 492 622 1350 3110
2026-05-04 20:30 4.08 132 9240 (2017) 3 (1956) 572 19 32 72 76 170 492 622 1350 3110
2026-05-04 19:30 4.08 132 9240 (2017) 3 (1956) 572 19 32 72 76 170 492 622 1350 3110
2026-05-04 18:30 4.09 133 9240 (2017) 3 (1956) 572 19 32 72 76 170 492 622 1350 3110
2026-05-04 17:30 4.09 133 9240 (2017) 3 (1956) 572 19 32 72 76 170 492 622 1350 3110
2026-05-04 16:30 4.10 134 9240 (2017) 3 (1956) 572 19 32 72 76 170 492 622 1350 3110
2026-05-04 15:30 4.11 136 9240 (2017) 3 (1956) 572 19 32 72 76 170 492 622 1350 3110
2026-05-04 14:30 4.11 136 9240 (2017) 3 (1956) 572 19 32 72 76 170 492 622 1350 3110
2026-05-04 13:30 4.11 136 9240 (2017) 3 (1956) 572 19 32 72 76 170 492 622 1350 3110
2026-05-04 12:30 4.12 137 9240 (2017) 3 (1956) 572 19 32 72 76 170 492 622 1350 3110
2026-05-04 11:30 4.12 137 9240 (2017) 3 (1956) 572 19 32 72 76 170 492 622 1350 3110
2026-05-04 10:30 4.13 139 9240 (2017) 3 (1956) 572 19 32 72 76 170 492 622 1350 3110
2026-05-04 09:30 4.13 139 9240 (2017) 3 (1956) 572 19 32 72 76 170 492 622 1350 3110
2026-05-04 08:30 4.13 139 9240 (2017) 3 (1956) 572 19 32 72 76 170 492 622 1350 3110
2026-05-04 07:30 4.14 140 9240 (2017) 3 (1956) 572 19 32 72 76 170 492 622 1350 3110
2026-05-04 06:30 4.14 140 9240 (2017) 3 (1956) 572 19 32 72 76 170 492 622 1350 3110
2026-05-04 05:30 4.14 140 9240 (2017) 3 (1956) 572 19 32 72 76 170 492 622 1350 3110
2026-05-04 04:30 4.14 140 9240 (2017) 3 (1956) 572 19 32 72 76 170 492 622 1350 3110
2026-05-04 03:30 4.15 141 9240 (2017) 3 (1956) 572 19 32 72 76 170 492 622 1350 3110
2026-05-04 02:30 4.16 143 9240 (2017) 3 (1956) 572 19 32 72 76 170 492 622 1350 3110
2026-05-04 01:30 4.16 143 9240 (2017) 3 (1956) 572 19 32 72 76 170 492 622 1350 3110
2026-05-04 00:30 4.16 143 9240 (2017) 3 (1956) 572 19 32 72 76 170 492 622 1350 3110
2026-05-03 23:30 4.17 144 9240 (2017) 3 (1956) 572 19 32 72 76 170 492 622 1350 3110
2026-05-03 22:30 4.17 144 5510 (2019) 4 (1956) 618 19 33 68 79 200 557 778 2050 3670
2026-05-03 21:30 4.18 146 5510 (2019) 4 (1956) 618 19 33 68 79 200 557 778 2050 3670
2026-05-03 20:30 4.18 146 5510 (2019) 4 (1956) 618 19 33 68 79 200 557 778 2050 3670
2026-05-03 19:30 4.19 147 5510 (2019) 4 (1956) 618 19 33 68 79 200 557 778 2050 3670
2026-05-03 18:30 4.19 147 5510 (2019) 4 (1956) 618 19 33 68 79 200 557 778 2050 3670
2026-05-03 17:30 4.20 149 5510 (2019) 4 (1956) 618 19 33 68 79 200 557 778 2050 3670
2026-05-03 16:30 4.20 149 5510 (2019) 4 (1956) 618 19 33 68 79 200 557 778 2050 3670
2026-05-03 15:30 4.21 150 5510 (2019) 4 (1956) 618 19 33 68 79 200 557 778 2050 3670
2026-05-03 14:30 4.22 152 5510 (2019) 4 (1956) 618 19 33 68 79 200 557 778 2050 3670
2026-05-03 13:30 4.22 152 5510 (2019) 4 (1956) 618 19 33 68 79 200 557 778 2050 3670
2026-05-03 12:30 4.23 153 5510 (2019) 4 (1956) 618 19 33 68 79 200 557 778 2050 3670
2026-05-03 11:30 4.23 153 5510 (2019) 4 (1956) 618 19 33 68 79 200 557 778 2050 3670
2026-05-03 10:30 4.24 154 5510 (2019) 4 (1956) 618 19 33 68 79 200 557 778 2050 3670
2026-05-03 09:30 4.24 154 5510 (2019) 4 (1956) 618 19 33 68 79 200 557 778 2050 3670
2026-05-03 08:30 4.25 156 5510 (2019) 4 (1956) 618 19 33 68 79 200 557 778 2050 3670
2026-05-03 07:30 4.26 158 5510 (2019) 4 (1956) 618 19 33 68 79 200 557 778 2050 3670
2026-05-03 06:30 4.26 158 5510 (2019) 4 (1956) 618 19 33 68 79 200 557 778 2050 3670
2026-05-03 05:30 4.27 159 5510 (2019) 4 (1956) 618 19 33 68 79 200 557 778 2050 3670
2026-05-03 04:30 4.28 161 5510 (2019) 4 (1956) 618 19 33 68 79 200 557 778 2050 3670
2026-05-03 03:30 4.28 161 5510 (2019) 4 (1956) 618 19 33 68 79 200 557 778 2050 3670
2026-05-03 02:30 4.29 162 5510 (2019) 4 (1956) 618 19 33 68 79 200 557 778 2050 3670
2026-05-03 01:30 4.30 164 5510 (2019) 4 (1956) 618 19 33 68 79 200 557 778 2050 3670
2026-05-03 00:30 4.31 165 5510 (2019) 4 (1956) 618 19 33 68 79 200 557 778 2050 3670
2026-05-02 23:30 4.31 165 5510 (2019) 4 (1956) 618 19 33 68 79 200 557 778 2050 3670
2026-05-02 22:30 4.32 167 9800 (2019) 4 (1956) 981 20 38 72 88 203 625 1060 1900 6970
2026-05-02 21:30 4.33 168 9800 (2019) 4 (1956) 981 20 38 72 88 203 625 1060 1900 6970
2026-05-02 20:30 4.34 170 9800 (2019) 4 (1956) 981 20 38 72 88 203 625 1060 1900 6970
2026-05-02 19:30 4.34 170 9800 (2019) 4 (1956) 981 20 38 72 88 203 625 1060 1900 6970
2026-05-02 18:30 4.35 171 9800 (2019) 4 (1956) 981 20 38 72 88 203 625 1060 1900 6970
2026-05-02 17:30 4.36 173 9800 (2019) 4 (1956) 981 20 38 72 88 203 625 1060 1900 6970
2026-05-02 16:30 4.37 175 9800 (2019) 4 (1956) 981 20 38 72 88 203 625 1060 1900 6970
2026-05-02 15:30 4.38 176 9800 (2019) 4 (1956) 981 20 38 72 88 203 625 1060 1900 6970
2026-05-02 14:30 4.38 176 9800 (2019) 4 (1956) 981 20 38 72 88 203 625 1060 1900 6970
2026-05-02 13:30 4.39 178 9800 (2019) 4 (1956) 981 20 38 72 88 203 625 1060 1900 6970
2026-05-02 12:30 4.41 181 9800 (2019) 4 (1956) 981 20 38 72 88 203 625 1060 1900 6970
2026-05-02 11:30 4.41 181 9800 (2019) 4 (1956) 981 20 38 72 88 203 625 1060 1900 6970
2026-05-02 10:30 4.43 184 9800 (2019) 4 (1956) 981 20 38 72 88 203 625 1060 1900 6970
2026-05-02 09:30 4.44 186 9800 (2019) 4 (1956) 981 20 38 72 88 203 625 1060 1900 6970
2026-05-02 08:30 4.45 188 9800 (2019) 4 (1956) 981 20 38 72 88 203 625 1060 1900 6970
2026-05-02 07:30 4.46 189 9800 (2019) 4 (1956) 981 20 38 72 88 203 625 1060 1900 6970
2026-05-02 06:30 4.47 191 9800 (2019) 4 (1956) 981 20 38 72 88 203 625 1060 1900 6970
2026-05-02 05:30 4.48 193 9800 (2019) 4 (1956) 981 20 38 72 88 203 625 1060 1900 6970
2026-05-02 04:30 4.49 194 9800 (2019) 4 (1956) 981 20 38 72 88 203 625 1060 1900 6970
2026-05-02 03:30 4.50 196 9800 (2019) 4 (1956) 981 20 38 72 88 203 625 1060 1900 6970
2026-05-02 02:30 4.51 198 9800 (2019) 4 (1956) 981 20 38 72 88 203 625 1060 1900 6970
2026-05-02 01:30 4.52 200 9800 (2019) 4 (1956) 981 20 38 72 88 203 625 1060 1900 6970
2026-05-02 00:30 4.53 201 9800 (2019) 4 (1956) 981 20 38 72 88 203 625 1060 1900 6970
2026-05-01 23:30 4.55 205 9800 (2019) 4 (1956) 981 20 38 72 88 203 625 1060 1900 6970
2026-05-01 22:30 4.56 206 14200 (1970) 4 (1956) 1260 20 35 83 95 231 613 700 4330 9280
2026-05-01 21:30 4.57 208 14200 (1970) 4 (1956) 1260 20 35 83 95 231 613 700 4330 9280
2026-05-01 20:30 4.58 210 14200 (1970) 4 (1956) 1260 20 35 83 95 231 613 700 4330 9280
2026-05-01 19:30 4.59 212 14200 (1970) 4 (1956) 1260 20 35 83 95 231 613 700 4330 9280
2026-05-01 18:30 4.61 215 14200 (1970) 4 (1956) 1260 20 35 83 95 231 613 700 4330 9280
2026-05-01 17:30 4.61 215 14200 (1970) 4 (1956) 1260 20 35 83 95 231 613 700 4330 9280
2026-05-01 16:30 4.62 217 14200 (1970) 4 (1956) 1260 20 35 83 95 231 613 700 4330 9280
2026-05-01 15:30 4.62 217 14200 (1970) 4 (1956) 1260 20 35 83 95 231 613 700 4330 9280
2026-05-01 14:30 4.63 219 14200 (1970) 4 (1956) 1260 20 35 83 95 231 613 700 4330 9280
2026-05-01 13:30 4.63 219 14200 (1970) 4 (1956) 1260 20 35 83 95 231 613 700 4330 9280
2026-05-01 12:30 4.62 217 14200 (1970) 4 (1956) 1260 20 35 83 95 231 613 700 4330 9280
2026-05-01 11:30 4.62 217 14200 (1970) 4 (1956) 1260 20 35 83 95 231 613 700 4330 9280
2026-05-01 10:30 4.62 217 14200 (1970) 4 (1956) 1260 20 35 83 95 231 613 700 4330 9280
2026-05-01 09:30 4.61 215 14200 (1970) 4 (1956) 1260 20 35 83 95 231 613 700 4330 9280
2026-05-01 08:30 4.61 215 14200 (1970) 4 (1956) 1260 20 35 83 95 231 613 700 4330 9280
2026-05-01 07:30 4.60 214 14200 (1970) 4 (1956) 1260 20 35 83 95 231 613 700 4330 9280
2026-05-01 06:30 4.60 214 14200 (1970) 4 (1956) 1260 20 35 83 95 231 613 700 4330 9280
2026-05-01 05:30 4.61 215 14200 (1970) 4 (1956) 1260 20 35 83 95 231 613 700 4330 9280
2026-05-01 04:30 4.61 215 14200 (1970) 4 (1956) 1260 20 35 83 95 231 613 700 4330 9280
2026-05-01 03:30 4.63 219 14200 (1970) 4 (1956) 1260 20 35 83 95 231 613 700 4330 9280
2026-05-01 02:30 4.64 221 14200 (1970) 4 (1956) 1260 20 35 83 95 231 613 700 4330 9280
2026-05-01 01:30 4.65 223 14200 (1970) 4 (1956) 1260 20 35 83 95 231 613 700 4330 9280
2026-05-01 00:30 4.66 224 14200 (1970) 4 (1956) 1260 20 35 83 95 231 613 700 4330 9280
2026-04-30 23:30 4.67 226 14200 (1970) 4 (1956) 1260 20 35 83 95 231 613 700 4330 9280
2026-04-30 22:30 4.69 230 16400 (2017) 1 (2006) 993 16 35 90 106 220 717 1120 2790 5310
2026-04-30 21:30 4.70 232 16400 (2017) 1 (2006) 993 16 35 90 106 220 717 1120 2790 5310
2026-04-30 20:30 4.71 234 16400 (2017) 1 (2006) 993 16 35 90 106 220 717 1120 2790 5310
2026-04-30 19:30 4.72 236 16400 (2017) 1 (2006) 993 16 35 90 106 220 717 1120 2790 5310
2026-04-30 18:30 4.73 237 16400 (2017) 1 (2006) 993 16 35 90 106 220 717 1120 2790 5310
2026-04-30 17:30 4.74 239 16400 (2017) 1 (2006) 993 16 35 90 106 220 717 1120 2790 5310
2026-04-30 16:30 4.75 241 16400 (2017) 1 (2006) 993 16 35 90 106 220 717 1120 2790 5310
2026-04-30 15:30 4.76 243 16400 (2017) 1 (2006) 993 16 35 90 106 220 717 1120 2790 5310
2026-04-30 14:30 4.77 245 16400 (2017) 1 (2006) 993 16 35 90 106 220 717 1120 2790 5310
2026-04-30 13:30 4.78 247 16400 (2017) 1 (2006) 993 16 35 90 106 220 717 1120 2790 5310
2026-04-30 12:30 4.79 249 16400 (2017) 1 (2006) 993 16 35 90 106 220 717 1120 2790 5310
2026-04-30 11:30 4.81 253 16400 (2017) 1 (2006) 993 16 35 90 106 220 717 1120 2790 5310
2026-04-30 10:30 4.83 257 16400 (2017) 1 (2006) 993 16 35 90 106 220 717 1120 2790 5310
2026-04-30 09:30 4.85 261 16400 (2017) 1 (2006) 993 16 35 90 106 220 717 1120 2790 5310
2026-04-30 08:30 4.87 265 16400 (2017) 1 (2006) 993 16 35 90 106 220 717 1120 2790 5310
2026-04-30 07:30 4.89 269 16400 (2017) 1 (2006) 993 16 35 90 106 220 717 1120 2790 5310
2026-04-30 06:30 4.91 273 16400 (2017) 1 (2006) 993 16 35 90 106 220 717 1120 2790 5310
2026-04-30 05:30 4.93 277 16400 (2017) 1 (2006) 993 16 35 90 106 220 717 1120 2790 5310
2026-04-30 04:30 4.95 281 16400 (2017) 1 (2006) 993 16 35 90 106 220 717 1120 2790 5310
2026-04-30 03:30 4.98 287 16400 (2017) 1 (2006) 993 16 35 90 106 220 717 1120 2790 5310
2026-04-30 02:30 5.01 294 16400 (2017) 1 (2006) 993 16 35 90 106 220 717 1120 2790 5310
2026-04-30 01:30 5.04 300 16400 (2017) 1 (2006) 993 16 35 90 106 220 717 1120 2790 5310
2026-04-30 00:30 5.07 307 16400 (2017) 1 (2006) 993 16 35 90 106 220 717 1120 2790 5310
2026-04-29 23:30 5.11 315 16400 (2017) 1 (2006) 993 16 35 90 106 220 717 1120 2790 5310
2026-04-29 22:30 5.14 322 5260 (2017) 1 (1954) 581 14 38 81 99 186 572 724 1860 2970
2026-04-29 21:30 5.18 331 5260 (2017) 1 (1954) 581 14 38 81 99 186 572 724 1860 2970
2026-04-29 20:30 5.22 340 5260 (2017) 1 (1954) 581 14 38 81 99 186 572 724 1860 2970
2026-04-29 19:30 5.26 350 5260 (2017) 1 (1954) 581 14 38 81 99 186 572 724 1860 2970
2026-04-29 18:30 5.30 359 5260 (2017) 1 (1954) 581 14 38 81 99 186 572 724 1860 2970
2026-04-29 17:30 5.34 369 5260 (2017) 1 (1954) 581 14 38 81 99 186 572 724 1860 2970
2026-04-29 16:30 5.37 376 5260 (2017) 1 (1954) 581 14 38 81 99 186 572 724 1860 2970
2026-04-29 15:30 5.40 383 5260 (2017) 1 (1954) 581 14 38 81 99 186 572 724 1860 2970
2026-04-29 14:30 5.42 388 5260 (2017) 1 (1954) 581 14 38 81 99 186 572 724 1860 2970
2026-04-29 13:30 5.43 391 5260 (2017) 1 (1954) 581 14 38 81 99 186 572 724 1860 2970
2026-04-29 12:30 5.43 391 5260 (2017) 1 (1954) 581 14 38 81 99 186 572 724 1860 2970
2026-04-29 11:30 5.42 388 5260 (2017) 1 (1954) 581 14 38 81 99 186 572 724 1860 2970
2026-04-29 10:30 5.40 383 5260 (2017) 1 (1954) 581 14 38 81 99 186 572 724 1860 2970
2026-04-29 09:30 5.38 378 5260 (2017) 1 (1954) 581 14 38 81 99 186 572 724 1860 2970
2026-04-29 08:30 5.33 366 5260 (2017) 1 (1954) 581 14 38 81 99 186 572 724 1860 2970
2026-04-29 07:30 5.28 354 5260 (2017) 1 (1954) 581 14 38 81 99 186 572 724 1860 2970
2026-04-29 06:30 5.23 343 5260 (2017) 1 (1954) 581 14 38 81 99 186 572 724 1860 2970
2026-04-29 05:30 5.19 333 5260 (2017) 1 (1954) 581 14 38 81 99 186 572 724 1860 2970
2026-04-29 04:30 5.17 329 5260 (2017) 1 (1954) 581 14 38 81 99 186 572 724 1860 2970
2026-04-29 03:30 5.15 324 5260 (2017) 1 (1954) 581 14 38 81 99 186 572 724 1860 2970
2026-04-29 02:30 5.13 320 5260 (2017) 1 (1954) 581 14 38 81 99 186 572 724 1860 2970
2026-04-29 01:30 5.10 313 5260 (2017) 1 (1954) 581 14 38 81 99 186 572 724 1860 2970
2026-04-29 00:30 5.07 307 5260 (2017) 1 (1954) 581 14 38 81 99 186 572 724 1860 2970
2026-04-28 23:30 5.02 296 5260 (2017) 1 (1954) 581 14 38 81 99 186 572 724 1860 2970
2026-04-28 22:30 4.97 285 6050 (1999) 0 (2006) 556 15 42 80 98 191 487 759 1320 2430
2026-04-28 21:30 4.95 281 6050 (1999) 0 (2006) 556 15 42 80 98 191 487 759 1320 2430
2026-04-28 20:30 4.93 277 6050 (1999) 0 (2006) 556 15 42 80 98 191 487 759 1320 2430
2026-04-28 19:30 4.91 273 6050 (1999) 0 (2006) 556 15 42 80 98 191 487 759 1320 2430
2026-04-28 18:30 4.88 267 6050 (1999) 0 (2006) 556 15 42 80 98 191 487 759 1320 2430
2026-04-28 17:30 4.86 263 6050 (1999) 0 (2006) 556 15 42 80 98 191 487 759 1320 2430
2026-04-28 16:30 4.83 257 6050 (1999) 0 (2006) 556 15 42 80 98 191 487 759 1320 2430
2026-04-28 15:30 4.82 255 6050 (1999) 0 (2006) 556 15 42 80 98 191 487 759 1320 2430
2026-04-28 14:30 4.81 253 6050 (1999) 0 (2006) 556 15 42 80 98 191 487 759 1320 2430
2026-04-28 13:30 4.80 251 6050 (1999) 0 (2006) 556 15 42 80 98 191 487 759 1320 2430
2026-04-28 12:30 4.79 249 6050 (1999) 0 (2006) 556 15 42 80 98 191 487 759 1320 2430
2026-04-28 11:30 4.80 251 6050 (1999) 0 (2006) 556 15 42 80 98 191 487 759 1320 2430
2026-04-28 10:30 4.82 255 6050 (1999) 0 (2006) 556 15 42 80 98 191 487 759 1320 2430
2026-04-28 09:30 4.84 259 6050 (1999) 0 (2006) 556 15 42 80 98 191 487 759 1320 2430
2026-04-28 08:30 4.86 263 6050 (1999) 0 (2006) 556 15 42 80 98 191 487 759 1320 2430
2026-04-28 07:30 4.88 267 6050 (1999) 0 (2006) 556 15 42 80 98 191 487 759 1320 2430
2026-04-28 06:30 4.90 271 6050 (1999) 0 (2006) 556 15 42 80 98 191 487 759 1320 2430
2026-04-28 05:30 4.91 273 6050 (1999) 0 (2006) 556 15 42 80 98 191 487 759 1320 2430
2026-04-28 04:30 4.91 273 6050 (1999) 0 (2006) 556 15 42 80 98 191 487 759 1320 2430
2026-04-28 03:30 4.91 273 6050 (1999) 0 (2006) 556 15 42 80 98 191 487 759 1320 2430
2026-04-28 02:30 4.90 271 6050 (1999) 0 (2006) 556 15 42 80 98 191 487 759 1320 2430
2026-04-28 01:30 4.89 269 6050 (1999) 0 (2006) 556 15 42 80 98 191 487 759 1320 2430
2026-04-28 00:30 4.87 265 6050 (1999) 0 (2006) 556 15 42 80 98 191 487 759 1320 2430
2026-04-27 23:30 4.86 263 6050 (1999) 0 (2006) 556 15 42 80 98 191 487 759 1320 2430
2026-04-27 22:30 4.87 265 5610 (1999) 0 (2006) 555 18 47 85 94 193 494 601 1010 3780
2026-04-27 21:30 4.88 267 5610 (1999) 0 (2006) 555 18 47 85 94 193 494 601 1010 3780
2026-04-27 20:30 4.89 269 5610 (1999) 0 (2006) 555 18 47 85 94 193 494 601 1010 3780
2026-04-27 19:30 4.91 273 5610 (1999) 0 (2006) 555 18 47 85 94 193 494 601 1010 3780
2026-04-27 18:30 4.93 277 5610 (1999) 0 (2006) 555 18 47 85 94 193 494 601 1010 3780
2026-04-27 17:30 4.95 281 5610 (1999) 0 (2006) 555 18 47 85 94 193 494 601 1010 3780
2026-04-27 16:30 4.96 283 5610 (1999) 0 (2006) 555 18 47 85 94 193 494 601 1010 3780
2026-04-27 15:30 4.98 287 5610 (1999) 0 (2006) 555 18 47 85 94 193 494 601 1010 3780
2026-04-27 14:30 4.99 290 5610 (1999) 0 (2006) 555 18 47 85 94 193 494 601 1010 3780
2026-04-27 13:30 5.01 294 5610 (1999) 0 (2006) 555 18 47 85 94 193 494 601 1010 3780
2026-04-27 12:30 5.03 298 5610 (1999) 0 (2006) 555 18 47 85 94 193 494 601 1010 3780
2026-04-27 11:30 5.03 298 5610 (1999) 0 (2006) 555 18 47 85 94 193 494 601 1010 3780
2026-04-27 10:30 5.05 302 5610 (1999) 0 (2006) 555 18 47 85 94 193 494 601 1010 3780
2026-04-27 09:30 5.05 302 5610 (1999) 0 (2006) 555 18 47 85 94 193 494 601 1010 3780
2026-04-27 08:30 5.07 307 5610 (1999) 0 (2006) 555 18 47 85 94 193 494 601 1010 3780
2026-04-27 07:30 5.07 307 5610 (1999) 0 (2006) 555 18 47 85 94 193 494 601 1010 3780
2026-04-27 06:30 5.07 307 5610 (1999) 0 (2006) 555 18 47 85 94 193 494 601 1010 3780
2026-04-27 05:30 5.07 307 5610 (1999) 0 (2006) 555 18 47 85 94 193 494 601 1010 3780
2026-04-27 04:30 5.09 311 5610 (1999) 0 (2006) 555 18 47 85 94 193 494 601 1010 3780
2026-04-27 03:30 5.11 315 5610 (1999) 0 (2006) 555 18 47 85 94 193 494 601 1010 3780
2026-04-27 02:30 5.14 322 5610 (1999) 0 (2006) 555 18 47 85 94 193 494 601 1010 3780
2026-04-27 01:30 5.15 324 5610 (1999) 0 (2006) 555 18 47 85 94 193 494 601 1010 3780
2026-04-27 00:30 5.14 322 5610 (1999) 0 (2006) 555 18 47 85 94 193 494 601 1010 3780
2026-04-26 23:30 5.13 320 5610 (1999) 0 (2006) 555 18 47 85 94 193 494 601 1010 3780
2026-04-26 22:30 5.13 320 5890 (1973) 0 (2006) 676 20 52 79 95 194 594 671 2120 3960
2026-04-26 21:30 5.14 322 5890 (1973) 0 (2006) 676 20 52 79 95 194 594 671 2120 3960
2026-04-26 20:30 5.14 322 5890 (1973) 0 (2006) 676 20 52 79 95 194 594 671 2120 3960
2026-04-26 19:30 5.12 318 5890 (1973) 0 (2006) 676 20 52 79 95 194 594 671 2120 3960
2026-04-26 18:30 5.14 322 5890 (1973) 0 (2006) 676 20 52 79 95 194 594 671 2120 3960
2026-04-26 17:30 5.14 322 5890 (1973) 0 (2006) 676 20 52 79 95 194 594 671 2120 3960
2026-04-26 16:30 5.16 327 5890 (1973) 0 (2006) 676 20 52 79 95 194 594 671 2120 3960
2026-04-26 15:30 5.18 331 5890 (1973) 0 (2006) 676 20 52 79 95 194 594 671 2120 3960
2026-04-26 14:30 5.17 329 5890 (1973) 0 (2006) 676 20 52 79 95 194 594 671 2120 3960
2026-04-26 13:30 5.19 333 5890 (1973) 0 (2006) 676 20 52 79 95 194 594 671 2120 3960
2026-04-26 12:30 5.20 336 5890 (1973) 0 (2006) 676 20 52 79 95 194 594 671 2120 3960
2026-04-26 11:30 5.21 338 5890 (1973) 0 (2006) 676 20 52 79 95 194 594 671 2120 3960
2026-04-26 10:30 5.23 343 5890 (1973) 0 (2006) 676 20 52 79 95 194 594 671 2120 3960
2026-04-26 09:30 5.24 345 5890 (1973) 0 (2006) 676 20 52 79 95 194 594 671 2120 3960
2026-04-26 08:30 5.25 347 5890 (1973) 0 (2006) 676 20 52 79 95 194 594 671 2120 3960
2026-04-26 07:30 5.27 352 5890 (1973) 0 (2006) 676 20 52 79 95 194 594 671 2120 3960
2026-04-26 06:30 5.28 354 5890 (1973) 0 (2006) 676 20 52 79 95 194 594 671 2120 3960
2026-04-26 05:30 5.29 357 5890 (1973) 0 (2006) 676 20 52 79 95 194 594 671 2120 3960
2026-04-26 04:30 5.31 362 5890 (1973) 0 (2006) 676 20 52 79 95 194 594 671 2120 3960
2026-04-26 03:30 5.33 366 5890 (1973) 0 (2006) 676 20 52 79 95 194 594 671 2120 3960
2026-04-26 02:30 5.35 371 5890 (1973) 0 (2006) 676 20 52 79 95 194 594 671 2120 3960
2026-04-26 01:30 5.37 376 5890 (1973) 0 (2006) 676 20 52 79 95 194 594 671 2120 3960
2026-04-26 00:30 5.39 381 5890 (1973) 0 (2006) 676 20 52 79 95 194 594 671 2120 3960
2026-04-25 23:30 5.41 386 5890 (1973) 0 (2006) 676 20 52 79 95 194 594 671 2120 3960
2026-04-25 22:30 5.42 388 8260 (2004) 0 (2006) 749 21 58 83 99 195 594 899 1340 5640
2026-04-25 21:30 5.44 393 8260 (2004) 0 (2006) 749 21 58 83 99 195 594 899 1340 5640
2026-04-25 20:30 5.46 398 8260 (2004) 0 (2006) 749 21 58 83 99 195 594 899 1340 5640
2026-04-25 19:30 5.49 406 8260 (2004) 0 (2006) 749 21 58 83 99 195 594 899 1340 5640
2026-04-25 18:30 5.51 411 8260 (2004) 0 (2006) 749 21 58 83 99 195 594 899 1340 5640
2026-04-25 17:30 5.54 419 8260 (2004) 0 (2006) 749 21 58 83 99 195 594 899 1340 5640
2026-04-25 16:30 5.56 424 8260 (2004) 0 (2006) 749 21 58 83 99 195 594 899 1340 5640
2026-04-25 15:30 5.59 432 8260 (2004) 0 (2006) 749 21 58 83 99 195 594 899 1340 5640
2026-04-25 14:30 5.61 437 8260 (2004) 0 (2006) 749 21 58 83 99 195 594 899 1340 5640
2026-04-25 13:30 5.64 445 8260 (2004) 0 (2006) 749 21 58 83 99 195 594 899 1340 5640
2026-04-25 12:30 5.68 456 8260 (2004) 0 (2006) 749 21 58 83 99 195 594 899 1340 5640
2026-04-25 11:30 5.71 464 8260 (2004) 0 (2006) 749 21 58 83 99 195 594 899 1340 5640
2026-04-25 10:30 5.75 475 8260 (2004) 0 (2006) 749 21 58 83 99 195 594 899 1340 5640
2026-04-25 09:30 5.78 483 8260 (2004) 0 (2006) 749 21 58 83 99 195 594 899 1340 5640
2026-04-25 08:30 5.81 492 8260 (2004) 0 (2006) 749 21 58 83 99 195 594 899 1340 5640
2026-04-25 07:30 5.83 497 8260 (2004) 0 (2006) 749 21 58 83 99 195 594 899 1340 5640
2026-04-25 06:30 5.86 506 8260 (2004) 0 (2006) 749 21 58 83 99 195 594 899 1340 5640
2026-04-25 05:30 5.88 512 8260 (2004) 0 (2006) 749 21 58 83 99 195 594 899 1340 5640
2026-04-25 04:30 5.90 518 8260 (2004) 0 (2006) 749 21 58 83 99 195 594 899 1340 5640
2026-04-25 03:30 5.91 521 8260 (2004) 0 (2006) 749 21 58 83 99 195 594 899 1340 5640
2026-04-25 02:30 5.91 521 8260 (2004) 0 (2006) 749 21 58 83 99 195 594 899 1340 5640
2026-04-25 01:30 5.88 512 8260 (2004) 0 (2006) 749 21 58 83 99 195 594 899 1340 5640
2026-04-25 00:30 5.85 503 8260 (2004) 0 (2006) 749 21 58 83 99 195 594 899 1340 5640
2026-04-24 23:30 5.80 489 8260 (2004) 0 (2006) 749 21 58 83 99 195 594 899 1340 5640
2026-04-24 22:30 5.74 472 8390 (1970) 0 (2006) 682 24 52 86 92 200 597 824 1610 2910
2026-04-24 21:30 5.68 456 8390 (1970) 0 (2006) 682 24 52 86 92 200 597 824 1610 2910
2026-04-24 20:30 5.64 445 8390 (1970) 0 (2006) 682 24 52 86 92 200 597 824 1610 2910
2026-04-24 19:30 5.61 437 8390 (1970) 0 (2006) 682 24 52 86 92 200 597 824 1610 2910
2026-04-24 18:30 5.59 432 8390 (1970) 0 (2006) 682 24 52 86 92 200 597 824 1610 2910
2026-04-24 17:30 5.57 427 8390 (1970) 0 (2006) 682 24 52 86 92 200 597 824 1610 2910
2026-04-24 16:30 5.55 421 8390 (1970) 0 (2006) 682 24 52 86 92 200 597 824 1610 2910
2026-04-24 15:30 5.54 419 8390 (1970) 0 (2006) 682 24 52 86 92 200 597 824 1610 2910
2026-04-24 14:30 5.53 416 8390 (1970) 0 (2006) 682 24 52 86 92 200 597 824 1610 2910
2026-04-24 13:30 5.52 414 8390 (1970) 0 (2006) 682 24 52 86 92 200 597 824 1610 2910
2026-04-24 12:30 5.51 411 8390 (1970) 0 (2006) 682 24 52 86 92 200 597 824 1610 2910
2026-04-24 11:30 5.49 406 8390 (1970) 0 (2006) 682 24 52 86 92 200 597 824 1610 2910
2026-04-24 10:30 5.47 401 8390 (1970) 0 (2006) 682 24 52 86 92 200 597 824 1610 2910
2026-04-24 09:30 5.46 398 8390 (1970) 0 (2006) 682 24 52 86 92 200 597 824 1610 2910
2026-04-24 08:30 5.43 391 8390 (1970) 0 (2006) 682 24 52 86 92 200 597 824 1610 2910
2026-04-24 07:30 5.40 383 8390 (1970) 0 (2006) 682 24 52 86 92 200 597 824 1610 2910
2026-04-24 06:30 5.39 381 8390 (1970) 0 (2006) 682 24 52 86 92 200 597 824 1610 2910
2026-04-24 05:30 5.35 371 8390 (1970) 0 (2006) 682 24 52 86 92 200 597 824 1610 2910
2026-04-24 04:30 5.29 357 8390 (1970) 0 (2006) 682 24 52 86 92 200 597 824 1610 2910
2026-04-24 03:30 5.26 350 8390 (1970) 0 (2006) 682 24 52 86 92 200 597 824 1610 2910
2026-04-24 02:30 5.26 350 8390 (1970) 0 (2006) 682 24 52 86 92 200 597 824 1610 2910
2026-04-24 01:30 5.25 347 8390 (1970) 0 (2006) 682 24 52 86 92 200 597 824 1610 2910
2026-04-24 00:30 5.23 343 8390 (1970) 0 (2006) 682 24 52 86 92 200 597 824 1610 2910
2026-04-23 23:30 5.24 345 8390 (1970) 0 (2006) 682 24 52 86 92 200 597 824 1610 2910
2026-04-23 22:30 5.26 350 6560 (1983) 0 (2006) 546 26 51 74 90 185 523 709 1330 2800
2026-04-23 21:30 5.27 352 6560 (1983) 0 (2006) 546 26 51 74 90 185 523 709 1330 2800
2026-04-23 20:30 5.28 354 6560 (1983) 0 (2006) 546 26 51 74 90 185 523 709 1330 2800
2026-04-23 19:30 5.29 357 6560 (1983) 0 (2006) 546 26 51 74 90 185 523 709 1330 2800
2026-04-23 18:30 5.30 359 6560 (1983) 0 (2006) 546 26 51 74 90 185 523 709 1330 2800
2026-04-23 17:30 5.31 362 6560 (1983) 0 (2006) 546 26 51 74 90 185 523 709 1330 2800
2026-04-23 16:30 5.31 362 6560 (1983) 0 (2006) 546 26 51 74 90 185 523 709 1330 2800
2026-04-23 15:30 5.33 366 6560 (1983) 0 (2006) 546 26 51 74 90 185 523 709 1330 2800
2026-04-23 14:30 5.34 369 6560 (1983) 0 (2006) 546 26 51 74 90 185 523 709 1330 2800
2026-04-23 13:30 5.35 371 6560 (1983) 0 (2006) 546 26 51 74 90 185 523 709 1330 2800
2026-04-23 12:30 5.36 374 6560 (1983) 0 (2006) 546 26 51 74 90 185 523 709 1330 2800
2026-04-23 11:30 5.36 374 6560 (1983) 0 (2006) 546 26 51 74 90 185 523 709 1330 2800
2026-04-23 10:30 5.38 378 6560 (1983) 0 (2006) 546 26 51 74 90 185 523 709 1330 2800
2026-04-23 09:30 5.39 381 6560 (1983) 0 (2006) 546 26 51 74 90 185 523 709 1330 2800
2026-04-23 08:30 5.41 386 6560 (1983) 0 (2006) 546 26 51 74 90 185 523 709 1330 2800
2026-04-23 07:30 5.41 386 6560 (1983) 0 (2006) 546 26 51 74 90 185 523 709 1330 2800
2026-04-23 06:30 5.43 391 6560 (1983) 0 (2006) 546 26 51 74 90 185 523 709 1330 2800
2026-04-23 05:30 5.44 393 6560 (1983) 0 (2006) 546 26 51 74 90 185 523 709 1330 2800
2026-04-23 04:30 5.46 398 6560 (1983) 0 (2006) 546 26 51 74 90 185 523 709 1330 2800
2026-04-23 03:30 5.46 398 6560 (1983) 0 (2006) 546 26 51 74 90 185 523 709 1330 2800
2026-04-23 02:30 5.48 403 6560 (1983) 0 (2006) 546 26 51 74 90 185 523 709 1330 2800
2026-04-23 01:30 5.49 406 6560 (1983) 0 (2006) 546 26 51 74 90 185 523 709 1330 2800
2026-04-23 00:30 5.51 411 6560 (1983) 0 (2006) 546 26 51 74 90 185 523 709 1330 2800
2026-04-22 23:30 5.52 414 6560 (1983) 0 (2006) 546 26 51 74 90 185 523 709 1330 2800
2026-04-22 22:30 5.53 416 8280 (1973) 0 (2006) 764 21 40 76 92 185 505 674 2890 5540
2026-04-22 21:30 5.55 421 8280 (1973) 0 (2006) 764 21 40 76 92 185 505 674 2890 5540
2026-04-22 20:30 5.57 427 8280 (1973) 0 (2006) 764 21 40 76 92 185 505 674 2890 5540
2026-04-22 19:30 5.59 432 8280 (1973) 0 (2006) 764 21 40 76 92 185 505 674 2890 5540
2026-04-22 18:30 5.60 434 8280 (1973) 0 (2006) 764 21 40 76 92 185 505 674 2890 5540
2026-04-22 17:30 5.61 437 8280 (1973) 0 (2006) 764 21 40 76 92 185 505 674 2890 5540
2026-04-22 16:30 5.63 442 8280 (1973) 0 (2006) 764 21 40 76 92 185 505 674 2890 5540
2026-04-22 15:30 5.64 445 8280 (1973) 0 (2006) 764 21 40 76 92 185 505 674 2890 5540
2026-04-22 14:30 5.66 450 8280 (1973) 0 (2006) 764 21 40 76 92 185 505 674 2890 5540
2026-04-22 13:30 5.67 453 8280 (1973) 0 (2006) 764 21 40 76 92 185 505 674 2890 5540
2026-04-22 12:30 5.69 459 8280 (1973) 0 (2006) 764 21 40 76 92 185 505 674 2890 5540
2026-04-22 11:30 5.71 464 8280 (1973) 0 (2006) 764 21 40 76 92 185 505 674 2890 5540
2026-04-22 10:30 5.72 467 8280 (1973) 0 (2006) 764 21 40 76 92 185 505 674 2890 5540
2026-04-22 09:30 5.74 472 8280 (1973) 0 (2006) 764 21 40 76 92 185 505 674 2890 5540
2026-04-22 08:30 5.76 478 8280 (1973) 0 (2006) 764 21 40 76 92 185 505 674 2890 5540
2026-04-22 07:30 5.78 483 8280 (1973) 0 (2006) 764 21 40 76 92 185 505 674 2890 5540
2026-04-22 06:30 5.81 492 8280 (1973) 0 (2006) 764 21 40 76 92 185 505 674 2890 5540
2026-04-22 05:30 5.82 495 8280 (1973) 0 (2006) 764 21 40 76 92 185 505 674 2890 5540
2026-04-22 04:30 5.85 503 8280 (1973) 0 (2006) 764 21 40 76 92 185 505 674 2890 5540
2026-04-22 03:30 5.87 509 8280 (1973) 0 (2006) 764 21 40 76 92 185 505 674 2890 5540
2026-04-22 02:30 5.89 515 8280 (1973) 0 (2006) 764 21 40 76 92 185 505 674 2890 5540
2026-04-22 01:30 5.92 523 8280 (1973) 0 (2006) 764 21 40 76 92 185 505 674 2890 5540
2026-04-22 00:30 5.94 529 8280 (1973) 0 (2006) 764 21 40 76 92 185 505 674 2890 5540
2026-04-21 23:30 5.96 535 8280 (1973) 0 (2006) 764 21 40 76 92 185 505 674 2890 5540
2026-04-21 22:30 5.99 544 10200 (1973) 0 (1954) 761 5 35 77 101 216 397 647 2440 3780
2026-04-21 21:30 6.02 553 10200 (1973) 0 (1954) 761 5 35 77 101 216 397 647 2440 3780
2026-04-21 20:30 6.04 559 10200 (1973) 0 (1954) 761 5 35 77 101 216 397 647 2440 3780
2026-04-21 19:30 6.07 568 10200 (1973) 0 (1954) 761 5 35 77 101 216 397 647 2440 3780
2026-04-21 18:30 6.10 578 10200 (1973) 0 (1954) 761 5 35 77 101 216 397 647 2440 3780
2026-04-21 17:30 6.12 584 10200 (1973) 0 (1954) 761 5 35 77 101 216 397 647 2440 3780
2026-04-21 16:30 6.16 596 10200 (1973) 0 (1954) 761 5 35 77 101 216 397 647 2440 3780
2026-04-21 15:30 6.19 606 10200 (1973) 0 (1954) 761 5 35 77 101 216 397 647 2440 3780
2026-04-21 14:30 6.22 615 10200 (1973) 0 (1954) 761 5 35 77 101 216 397 647 2440 3780
2026-04-21 13:30 6.24 622 10200 (1973) 0 (1954) 761 5 35 77 101 216 397 647 2440 3780
2026-04-21 12:30 6.28 635 10200 (1973) 0 (1954) 761 5 35 77 101 216 397 647 2440 3780
2026-04-21 11:30 6.30 641 10200 (1973) 0 (1954) 761 5 35 77 101 216 397 647 2440 3780
2026-04-21 10:30 6.33 651 10200 (1973) 0 (1954) 761 5 35 77 101 216 397 647 2440 3780
2026-04-21 09:30 6.35 658 10200 (1973) 0 (1954) 761 5 35 77 101 216 397 647 2440 3780
2026-04-21 08:30 6.37 664 10200 (1973) 0 (1954) 761 5 35 77 101 216 397 647 2440 3780
2026-04-21 07:30 6.39 671 10200 (1973) 0 (1954) 761 5 35 77 101 216 397 647 2440 3780
2026-04-21 06:30 6.42 681 10200 (1973) 0 (1954) 761 5 35 77 101 216 397 647 2440 3780
2026-04-21 05:30 6.44 688 10200 (1973) 0 (1954) 761 5 35 77 101 216 397 647 2440 3780
2026-04-21 04:30 6.48 702 10200 (1973) 0 (1954) 761 5 35 77 101 216 397 647 2440 3780
2026-04-21 03:30 6.51 712 10200 (1973) 0 (1954) 761 5 35 77 101 216 397 647 2440 3780
2026-04-21 02:30 6.55 726 10200 (1973) 0 (1954) 761 5 35 77 101 216 397 647 2440 3780
2026-04-21 01:30 6.59 740 10200 (1973) 0 (1954) 761 5 35 77 101 216 397 647 2440 3780
2026-04-21 00:30 6.63 754 10200 (1973) 0 (1954) 761 5 35 77 101 216 397 647 2440 3780
2026-04-20 23:30 6.67 769 10200 (1973) 0 (1954) 761 5 35 77 101 216 397 647 2440 3780
2026-04-20 22:30 6.72 787 6260 (2025) 0 (1954) 486 5 37 78 90 195 427 477 1340 2480
2026-04-20 21:30 6.76 802 6260 (2025) 0 (1954) 486 5 37 78 90 195 427 477 1340 2480
2026-04-20 20:30 6.80 816 6260 (2025) 0 (1954) 486 5 37 78 90 195 427 477 1340 2480
2026-04-20 19:30 6.85 835 6260 (2025) 0 (1954) 486 5 37 78 90 195 427 477 1340 2480
2026-04-20 18:30 6.89 850 6260 (2025) 0 (1954) 486 5 37 78 90 195 427 477 1340 2480
2026-04-20 17:30 6.95 874 6260 (2025) 0 (1954) 486 5 37 78 90 195 427 477 1340 2480
2026-04-20 16:30 6.98 885 6260 (2025) 0 (1954) 486 5 37 78 90 195 427 477 1340 2480
2026-04-20 15:30 7.03 905 6260 (2025) 0 (1954) 486 5 37 78 90 195 427 477 1340 2480
2026-04-20 14:30 7.09 929 6260 (2025) 0 (1954) 486 5 37 78 90 195 427 477 1340 2480
2026-04-20 13:30 7.14 949 6260 (2025) 0 (1954) 486 5 37 78 90 195 427 477 1340 2480
2026-04-20 12:30 7.20 974 6260 (2025) 0 (1954) 486 5 37 78 90 195 427 477 1340 2480
2026-04-20 11:30 7.28 1010 6260 (2025) 0 (1954) 486 5 37 78 90 195 427 477 1340 2480
2026-04-20 10:30 7.34 1030 6260 (2025) 0 (1954) 486 5 37 78 90 195 427 477 1340 2480
2026-04-20 09:30 7.40 1060 6260 (2025) 0 (1954) 486 5 37 78 90 195 427 477 1340 2480
2026-04-20 08:30 7.49 1100 6260 (2025) 0 (1954) 486 5 37 78 90 195 427 477 1340 2480
2026-04-20 07:30 7.56 1130 6260 (2025) 0 (1954) 486 5 37 78 90 195 427 477 1340 2480
2026-04-20 06:30 7.66 1180 6260 (2025) 0 (1954) 486 5 37 78 90 195 427 477 1340 2480
2026-04-20 05:30 7.75 1220 6260 (2025) 0 (1954) 486 5 37 78 90 195 427 477 1340 2480
2026-04-20 04:30 7.88 1280 6260 (2025) 0 (1954) 486 5 37 78 90 195 427 477 1340 2480
2026-04-20 03:30 8.00 1350 6260 (2025) 0 (1954) 486 5 37 78 90 195 427 477 1340 2480
2026-04-20 02:30 8.16 1430 6260 (2025) 0 (1954) 486 5 37 78 90 195 427 477 1340 2480
2026-04-20 01:30 8.38 1550 6260 (2025) 0 (1954) 486 5 37 78 90 195 427 477 1340 2480
2026-04-20 00:30 8.63 1670 6260 (2025) 0 (1954) 486 5 37 78 90 195 427 477 1340 2480
2026-04-19 23:30 8.93 1810 6260 (2025) 0 (1954) 486 5 37 78 90 195 427 477 1340 2480
2026-04-19 22:30 9.29 1990 6900 (2013) 0 (1954) 452 5 42 74 85 177 403 479 1050 2380
2026-04-19 21:30 9.64 2180 6900 (2013) 0 (1954) 452 5 42 74 85 177 403 479 1050 2380
2026-04-19 20:30 10.04 2400 6900 (2013) 0 (1954) 452 5 42 74 85 177 403 479 1050 2380
2026-04-19 19:30 10.43 2600 6900 (2013) 0 (1954) 452 5 42 74 85 177 403 479 1050 2380
2026-04-19 18:30 10.87 2830 6900 (2013) 0 (1954) 452 5 42 74 85 177 403 479 1050 2380
2026-04-19 17:30 11.34 3070 6900 (2013) 0 (1954) 452 5 42 74 85 177 403 479 1050 2380
2026-04-19 16:30 11.78 3310 6900 (2013) 0 (1954) 452 5 42 74 85 177 403 479 1050 2380
2026-04-19 15:30 12.22 3560 6900 (2013) 0 (1954) 452 5 42 74 85 177 403 479 1050 2380
2026-04-19 14:30 12.64 3800 6900 (2013) 0 (1954) 452 5 42 74 85 177 403 479 1050 2380
2026-04-19 13:30 13.07 4050 6900 (2013) 0 (1954) 452 5 42 74 85 177 403 479 1050 2380
2026-04-19 12:30 13.37 4230 6900 (2013) 0 (1954) 452 5 42 74 85 177 403 479 1050 2380
2026-04-19 11:30 13.81 4500 6900 (2013) 0 (1954) 452 5 42 74 85 177 403 479 1050 2380
2026-04-19 10:30 14.21 4750 6900 (2013) 0 (1954) 452 5 42 74 85 177 403 479 1050 2380
2026-04-19 09:30 14.66 5030 6900 (2013) 0 (1954) 452 5 42 74 85 177 403 479 1050 2380
2026-04-19 08:30 15.01 5260 6900 (2013) 0 (1954) 452 5 42 74 85 177 403 479 1050 2380
2026-04-19 07:30 15.45 5550 6900 (2013) 0 (1954) 452 5 42 74 85 177 403 479 1050 2380
2026-04-19 06:30 15.74 5750 6900 (2013) 0 (1954) 452 5 42 74 85 177 403 479 1050 2380
2026-04-19 05:30 16.19 6050 6900 (2013) 0 (1954) 452 5 42 74 85 177 403 479 1050 2380
2026-04-19 04:30 16.54 6300 6900 (2013) 0 (1954) 452 5 42 74 85 177 403 479 1050 2380
2026-04-19 03:30 16.83 6500 6900 (2013) 0 (1954) 452 5 42 74 85 177 403 479 1050 2380
2026-04-19 02:30 17.00 6620 6900 (2013) 0 (1954) 452 5 42 74 85 177 403 479 1050 2380
2026-04-19 01:30 17.16 6740 6900 (2013) 0 (1954) 452 5 42 74 85 177 403 479 1050 2380
2026-04-19 00:30 17.35 6870 6900 (2013) 0 (1954) 452 5 42 74 85 177 403 479 1050 2380
2026-04-18 23:30 17.34 6860 6900 (2013) 0 (1954) 452 5 42 74 85 177 403 479 1050 2380
2026-04-18 22:30 17.44 6930 4670 (2013) 0 (1954) 420 6 37 76 90 196 439 482 753 2110
2026-04-18 21:30 17.36 6880 4670 (2013) 0 (1954) 420 6 37 76 90 196 439 482 753 2110
2026-04-18 20:30 17.27 6820 4670 (2013) 0 (1954) 420 6 37 76 90 196 439 482 753 2110
2026-04-18 19:30 17.13 6720 4670 (2013) 0 (1954) 420 6 37 76 90 196 439 482 753 2110
2026-04-18 18:30 16.98 6610 4670 (2013) 0 (1954) 420 6 37 76 90 196 439 482 753 2110
2026-04-18 17:30 16.82 6490 4670 (2013) 0 (1954) 420 6 37 76 90 196 439 482 753 2110
2026-04-18 16:30 16.60 6340 4670 (2013) 0 (1954) 420 6 37 76 90 196 439 482 753 2110
2026-04-18 15:30 16.49 6260 4670 (2013) 0 (1954) 420 6 37 76 90 196 439 482 753 2110
2026-04-18 14:30 16.26 6100 4670 (2013) 0 (1954) 420 6 37 76 90 196 439 482 753 2110
2026-04-18 13:30 16.01 5930 4670 (2013) 0 (1954) 420 6 37 76 90 196 439 482 753 2110
2026-04-18 12:30 15.82 5800 4670 (2013) 0 (1954) 420 6 37 76 90 196 439 482 753 2110
2026-04-18 11:30 15.62 5660 4670 (2013) 0 (1954) 420 6 37 76 90 196 439 482 753 2110
2026-04-18 10:30 15.40 5520 4670 (2013) 0 (1954) 420 6 37 76 90 196 439 482 753 2110
2026-04-18 09:30 15.23 5410 4670 (2013) 0 (1954) 420 6 37 76 90 196 439 482 753 2110
2026-04-18 08:30 15.06 5290 4670 (2013) 0 (1954) 420 6 37 76 90 196 439 482 753 2110
2026-04-18 07:30 14.98 5240 4670 (2013) 0 (1954) 420 6 37 76 90 196 439 482 753 2110
2026-04-18 06:30 14.72 5070 4670 (2013) 0 (1954) 420 6 37 76 90 196 439 482 753 2110
2026-04-18 05:30 14.35 4830 4670 (2013) 0 (1954) 420 6 37 76 90 196 439 482 753 2110
2026-04-18 04:30 14.03 4640 4670 (2013) 0 (1954) 420 6 37 76 90 196 439 482 753 2110
2026-04-18 03:30 13.88 4540 4670 (2013) 0 (1954) 420 6 37 76 90 196 439 482 753 2110
2026-04-18 02:30 13.73 4450 4670 (2013) 0 (1954) 420 6 37 76 90 196 439 482 753 2110
2026-04-18 01:30 13.56 4340 4670 (2013) 0 (1954) 420 6 37 76 90 196 439 482 753 2110
2026-04-18 00:30 13.27 4170 4670 (2013) 0 (1954) 420 6 37 76 90 196 439 482 753 2110
2026-04-17 23:30 12.66 3810 4670 (2013) 0 (1954) 420 6 37 76 90 196 439 482 753 2110
2026-04-17 22:30 12.21 3550 8430 (1973) 0 (1954) 390 6 39 76 84 179 360 440 900 1070
2026-04-17 21:30 12.19 3540 8430 (1973) 0 (1954) 390 6 39 76 84 179 360 440 900 1070
2026-04-17 20:30 12.37 3650 8430 (1973) 0 (1954) 390 6 39 76 84 179 360 440 900 1070
2026-04-17 19:30 12.61 3780 8430 (1973) 0 (1954) 390 6 39 76 84 179 360 440 900 1070
2026-04-17 18:30 12.75 3860 8430 (1973) 0 (1954) 390 6 39 76 84 179 360 440 900 1070
2026-04-17 17:30 12.83 3910 8430 (1973) 0 (1954) 390 6 39 76 84 179 360 440 900 1070
2026-04-17 16:30 12.85 3920 8430 (1973) 0 (1954) 390 6 39 76 84 179 360 440 900 1070
2026-04-17 15:30 12.84 3910 8430 (1973) 0 (1954) 390 6 39 76 84 179 360 440 900 1070
2026-04-17 14:30 12.86 3930 8430 (1973) 0 (1954) 390 6 39 76 84 179 360 440 900 1070
2026-04-17 13:30 12.80 3900 8430 (1973) 0 (1954) 390 6 39 76 84 179 360 440 900 1070
2026-04-17 12:30 12.74 3860 8430 (1973) 0 (1954) 390 6 39 76 84 179 360 440 900 1070
2026-04-17 11:30 12.73 3850 8430 (1973) 0 (1954) 390 6 39 76 84 179 360 440 900 1070
2026-04-17 10:30 12.73 3850 8430 (1973) 0 (1954) 390 6 39 76 84 179 360 440 900 1070
2026-04-17 09:30 12.75 3860 8430 (1973) 0 (1954) 390 6 39 76 84 179 360 440 900 1070
2026-04-17 08:30 12.79 3890 8430 (1973) 0 (1954) 390 6 39 76 84 179 360 440 900 1070
2026-04-17 07:30 12.93 3970 8430 (1973) 0 (1954) 390 6 39 76 84 179 360 440 900 1070
2026-04-17 06:30 12.95 3980 8430 (1973) 0 (1954) 390 6 39 76 84 179 360 440 900 1070
2026-04-17 05:30 13.11 4070 8430 (1973) 0 (1954) 390 6 39 76 84 179 360 440 900 1070
2026-04-17 04:30 13.28 4170 8430 (1973) 0 (1954) 390 6 39 76 84 179 360 440 900 1070
2026-04-17 03:30 13.45 4280 8430 (1973) 0 (1954) 390 6 39 76 84 179 360 440 900 1070
2026-04-17 02:30 13.84 4520 8430 (1973) 0 (1954) 390 6 39 76 84 179 360 440 900 1070
2026-04-17 01:30 14.07 4660 8430 (1973) 0 (1954) 390 6 39 76 84 179 360 440 900 1070
2026-04-17 00:30 14.42 4880 8430 (1973) 0 (1954) 390 6 39 76 84 179 360 440 900 1070
2026-04-16 23:30 14.69 5050 8430 (1973) 0 (1954) 390 6 39 76 84 179 360 440 900 1070
2026-04-16 22:30 15.06 5290 6710 (1973) 0 (1954) 468 6 39 81 87 201 432 557 987 2410
2026-04-16 21:30 15.28 5440 6710 (1973) 0 (1954) 468 6 39 81 87 201 432 557 987 2410
2026-04-16 20:30 15.40 5520 6710 (1973) 0 (1954) 468 6 39 81 87 201 432 557 987 2410
2026-04-16 19:30 15.37 5500 6710 (1973) 0 (1954) 468 6 39 81 87 201 432 557 987 2410
2026-04-16 18:30 15.29 5450 6710 (1973) 0 (1954) 468 6 39 81 87 201 432 557 987 2410
2026-04-16 17:30 15.04 5280 6710 (1973) 0 (1954) 468 6 39 81 87 201 432 557 987 2410
2026-04-16 16:30 14.62 5010 6710 (1973) 0 (1954) 468 6 39 81 87 201 432 557 987 2410
2026-04-16 15:30 14.21 4750 6710 (1973) 0 (1954) 468 6 39 81 87 201 432 557 987 2410
2026-04-16 14:30 13.64 4400 6710 (1973) 0 (1954) 468 6 39 81 87 201 432 557 987 2410
2026-04-16 13:30 12.97 3990 6710 (1973) 0 (1954) 468 6 39 81 87 201 432 557 987 2410
2026-04-16 12:30 12.07 3480 6710 (1973) 0 (1954) 468 6 39 81 87 201 432 557 987 2410
2026-04-16 11:30 11.09 2940 6710 (1973) 0 (1954) 468 6 39 81 87 201 432 557 987 2410
2026-04-16 10:30 9.91 2320 6710 (1973) 0 (1954) 468 6 39 81 87 201 432 557 987 2410
2026-04-16 09:30 8.57 1640 6710 (1973) 0 (1954) 468 6 39 81 87 201 432 557 987 2410
2026-04-16 08:30 7.01 897 6710 (1973) 0 (1954) 468 6 39 81 87 201 432 557 987 2410
2026-04-16 07:30 5.57 427 6710 (1973) 0 (1954) 468 6 39 81 87 201 432 557 987 2410
2026-04-16 06:30 5.18 331 6710 (1973) 0 (1954) 468 6 39 81 87 201 432 557 987 2410
2026-04-16 05:30 5.11 315 6710 (1973) 0 (1954) 468 6 39 81 87 201 432 557 987 2410
2026-04-16 04:30 5.06 305 6710 (1973) 0 (1954) 468 6 39 81 87 201 432 557 987 2410
2026-04-16 03:30 5.03 298 6710 (1973) 0 (1954) 468 6 39 81 87 201 432 557 987 2410
2026-04-16 02:30 5.01 294 6710 (1973) 0 (1954) 468 6 39 81 87 201 432 557 987 2410
2026-04-16 01:30 5.00 292 6710 (1973) 0 (1954) 468 6 39 81 87 201 432 557 987 2410
2026-04-16 00:30 4.99 290 6710 (1973) 0 (1954) 468 6 39 81 87 201 432 557 987 2410
2026-04-15 23:30 4.99 290 6710 (1973) 0 (1954) 468 6 39 81 87 201 432 557 987 2410
2026-04-15 22:30 4.98 287 5760 (1999) 0 (1954) 479 7 38 87 99 210 484 580 1050 2360
2026-04-15 21:30 4.98 287 5760 (1999) 0 (1954) 479 7 38 87 99 210 484 580 1050 2360
2026-04-15 20:30 4.98 287 5760 (1999) 0 (1954) 479 7 38 87 99 210 484 580 1050 2360
2026-04-15 19:30 4.98 287 5760 (1999) 0 (1954) 479 7 38 87 99 210 484 580 1050 2360
2026-04-15 18:30 4.98 287 5760 (1999) 0 (1954) 479 7 38 87 99 210 484 580 1050 2360
2026-04-15 17:30 4.98 287 5760 (1999) 0 (1954) 479 7 38 87 99 210 484 580 1050 2360
2026-04-15 16:30 4.98 287 5760 (1999) 0 (1954) 479 7 38 87 99 210 484 580 1050 2360
2026-04-15 15:30 4.98 287 5760 (1999) 0 (1954) 479 7 38 87 99 210 484 580 1050 2360
2026-04-15 14:30 4.97 285 5760 (1999) 0 (1954) 479 7 38 87 99 210 484 580 1050 2360
2026-04-15 13:30 4.97 285 5760 (1999) 0 (1954) 479 7 38 87 99 210 484 580 1050 2360
2026-04-15 12:30 4.97 285 5760 (1999) 0 (1954) 479 7 38 87 99 210 484 580 1050 2360
2026-04-15 11:30 4.96 283 5760 (1999) 0 (1954) 479 7 38 87 99 210 484 580 1050 2360
2026-04-15 10:30 4.97 285 5760 (1999) 0 (1954) 479 7 38 87 99 210 484 580 1050 2360
2026-04-15 09:30 4.97 285 5760 (1999) 0 (1954) 479 7 38 87 99 210 484 580 1050 2360
2026-04-15 08:30 4.97 285 5760 (1999) 0 (1954) 479 7 38 87 99 210 484 580 1050 2360
2026-04-15 07:30 4.97 285 5760 (1999) 0 (1954) 479 7 38 87 99 210 484 580 1050 2360
2026-04-15 06:30 4.97 285 5760 (1999) 0 (1954) 479 7 38 87 99 210 484 580 1050 2360
2026-04-15 05:30 4.97 285 5760 (1999) 0 (1954) 479 7 38 87 99 210 484 580 1050 2360
2026-04-15 04:30 4.98 287 5760 (1999) 0 (1954) 479 7 38 87 99 210 484 580 1050 2360
2026-04-15 03:30 4.99 290 5760 (1999) 0 (1954) 479 7 38 87 99 210 484 580 1050 2360
2026-04-15 02:30 5.01 294 5760 (1999) 0 (1954) 479 7 38 87 99 210 484 580 1050 2360
2026-04-15 01:30 5.01 294 5760 (1999) 0 (1954) 479 7 38 87 99 210 484 580 1050 2360
2026-04-15 00:30 5.02 296 5760 (1999) 0 (1954) 479 7 38 87 99 210 484 580 1050 2360
2026-04-14 23:30 5.04 300 5760 (1999) 0 (1954) 479 7 38 87 99 210 484 580 1050 2360
2026-04-14 22:30 5.05 302 3580 (1994) 0 (1954) 451 7 41 73 100 207 516 633 1350 1780
2026-04-14 21:30 5.07 307 3580 (1994) 0 (1954) 451 7 41 73 100 207 516 633 1350 1780
2026-04-14 20:30 5.09 311 3580 (1994) 0 (1954) 451 7 41 73 100 207 516 633 1350 1780
2026-04-14 19:30 5.10 313 3580 (1994) 0 (1954) 451 7 41 73 100 207 516 633 1350 1780
2026-04-14 18:30 5.11 315 3580 (1994) 0 (1954) 451 7 41 73 100 207 516 633 1350 1780
2026-04-14 17:30 5.12 318 3580 (1994) 0 (1954) 451 7 41 73 100 207 516 633 1350 1780
2026-04-14 16:30 5.13 320 3580 (1994) 0 (1954) 451 7 41 73 100 207 516 633 1350 1780
2026-04-14 15:30 5.13 320 3580 (1994) 0 (1954) 451 7 41 73 100 207 516 633 1350 1780
2026-04-14 14:30 5.14 322 3580 (1994) 0 (1954) 451 7 41 73 100 207 516 633 1350 1780
2026-04-14 13:30 5.15 324 3580 (1994) 0 (1954) 451 7 41 73 100 207 516 633 1350 1780
2026-04-14 12:30 5.16 327 3580 (1994) 0 (1954) 451 7 41 73 100 207 516 633 1350 1780
2026-04-14 11:30 5.17 329 3580 (1994) 0 (1954) 451 7 41 73 100 207 516 633 1350 1780
2026-04-14 09:30 5.19 333 3580 (1994) 0 (1954) 451 7 41 73 100 207 516 633 1350 1780
2026-04-14 08:30 5.21 338 3580 (1994) 0 (1954) 451 7 41 73 100 207 516 633 1350 1780
2026-04-14 07:30 5.22 340 3580 (1994) 0 (1954) 451 7 41 73 100 207 516 633 1350 1780
2026-04-14 06:30 5.24 345 3580 (1994) 0 (1954) 451 7 41 73 100 207 516 633 1350 1780
2026-04-14 05:30 5.25 347 3580 (1994) 0 (1954) 451 7 41 73 100 207 516 633 1350 1780
2026-04-14 04:30 5.26 350 3580 (1994) 0 (1954) 451 7 41 73 100 207 516 633 1350 1780
2026-04-14 03:30 5.28 354 3580 (1994) 0 (1954) 451 7 41 73 100 207 516 633 1350 1780
2026-04-14 02:30 5.29 357 3580 (1994) 0 (1954) 451 7 41 73 100 207 516 633 1350 1780
2026-04-14 01:30 5.31 362 3580 (1994) 0 (1954) 451 7 41 73 100 207 516 633 1350 1780
2026-04-14 00:30 5.33 366 3580 (1994) 0 (1954) 451 7 41 73 100 207 516 633 1350 1780
2026-04-13 23:30 5.35 371 3580 (1994) 0 (1954) 451 7 41 73 100 207 516 633 1350 1780
2026-04-13 22:30 5.36 374 10000 (1994) 0 (1954) 480 4 43 70 97 190 420 510 1120 1380
2026-04-13 21:30 5.38 378 10000 (1994) 0 (1954) 480 4 43 70 97 190 420 510 1120 1380
2026-04-13 20:30 5.39 381 10000 (1994) 0 (1954) 480 4 43 70 97 190 420 510 1120 1380
2026-04-13 19:30 5.41 386 10000 (1994) 0 (1954) 480 4 43 70 97 190 420 510 1120 1380
2026-04-13 18:30 5.42 388 10000 (1994) 0 (1954) 480 4 43 70 97 190 420 510 1120 1380
2026-04-13 17:30 5.44 393 10000 (1994) 0 (1954) 480 4 43 70 97 190 420 510 1120 1380
2026-04-13 16:30 5.45 396 10000 (1994) 0 (1954) 480 4 43 70 97 190 420 510 1120 1380
2026-04-13 15:30 5.47 401 10000 (1994) 0 (1954) 480 4 43 70 97 190 420 510 1120 1380
2026-04-13 14:30 5.49 406 10000 (1994) 0 (1954) 480 4 43 70 97 190 420 510 1120 1380
2026-04-13 13:30 5.51 411 10000 (1994) 0 (1954) 480 4 43 70 97 190 420 510 1120 1380
2026-04-13 12:30 5.53 416 10000 (1994) 0 (1954) 480 4 43 70 97 190 420 510 1120 1380
2026-04-13 11:30 5.54 419 10000 (1994) 0 (1954) 480 4 43 70 97 190 420 510 1120 1380
2026-04-13 10:30 5.56 424 10000 (1994) 0 (1954) 480 4 43 70 97 190 420 510 1120 1380
2026-04-13 09:30 5.58 429 10000 (1994) 0 (1954) 480 4 43 70 97 190 420 510 1120 1380
2026-04-13 08:30 5.60 434 10000 (1994) 0 (1954) 480 4 43 70 97 190 420 510 1120 1380
2026-04-13 07:30 5.62 440 10000 (1994) 0 (1954) 480 4 43 70 97 190 420 510 1120 1380
2026-04-13 06:30 5.65 448 10000 (1994) 0 (1954) 480 4 43 70 97 190 420 510 1120 1380
2026-04-13 05:30 5.67 453 10000 (1994) 0 (1954) 480 4 43 70 97 190 420 510 1120 1380
2026-04-13 04:30 5.69 459 10000 (1994) 0 (1954) 480 4 43 70 97 190 420 510 1120 1380
2026-04-13 03:30 5.71 464 10000 (1994) 0 (1954) 480 4 43 70 97 190 420 510 1120 1380
2026-04-13 02:30 5.74 472 10000 (1994) 0 (1954) 480 4 43 70 97 190 420 510 1120 1380
2026-04-13 01:30 5.76 478 10000 (1994) 0 (1954) 480 4 43 70 97 190 420 510 1120 1380
2026-04-13 00:30 5.79 486 10000 (1994) 0 (1954) 480 4 43 70 97 190 420 510 1120 1380
2026-04-12 23:30 5.82 495 10000 (1994) 0 (1954) 480 4 43 70 97 190 420 510 1120 1380
2026-04-12 22:30 5.84 500 21900 (1994) 0 (1954) 772 5 46 67 88 193 449 530 1100 2620
2026-04-12 21:30 5.87 509 21900 (1994) 0 (1954) 772 5 46 67 88 193 449 530 1100 2620
2026-04-12 20:30 5.90 518 21900 (1994) 0 (1954) 772 5 46 67 88 193 449 530 1100 2620
2026-04-12 19:30 5.93 526 21900 (1994) 0 (1954) 772 5 46 67 88 193 449 530 1100 2620
2026-04-12 18:30 5.96 535 21900 (1994) 0 (1954) 772 5 46 67 88 193 449 530 1100 2620
2026-04-12 17:30 5.99 544 21900 (1994) 0 (1954) 772 5 46 67 88 193 449 530 1100 2620
2026-04-12 16:30 6.03 556 21900 (1994) 0 (1954) 772 5 46 67 88 193 449 530 1100 2620
2026-04-12 15:30 6.07 568 21900 (1994) 0 (1954) 772 5 46 67 88 193 449 530 1100 2620
2026-04-12 14:30 6.11 581 21900 (1994) 0 (1954) 772 5 46 67 88 193 449 530 1100 2620
2026-04-12 13:30 6.16 596 21900 (1994) 0 (1954) 772 5 46 67 88 193 449 530 1100 2620
2026-04-12 12:30 6.20 609 21900 (1994) 0 (1954) 772 5 46 67 88 193 449 530 1100 2620
2026-04-12 11:30 6.25 625 21900 (1994) 0 (1954) 772 5 46 67 88 193 449 530 1100 2620
2026-04-12 10:30 6.31 644 21900 (1994) 0 (1954) 772 5 46 67 88 193 449 530 1100 2620
2026-04-12 09:30 6.36 661 21900 (1994) 0 (1954) 772 5 46 67 88 193 449 530 1100 2620
2026-04-12 08:30 6.42 681 21900 (1994) 0 (1954) 772 5 46 67 88 193 449 530 1100 2620
2026-04-12 07:30 6.49 705 21900 (1994) 0 (1954) 772 5 46 67 88 193 449 530 1100 2620
2026-04-12 06:30 6.56 729 21900 (1994) 0 (1954) 772 5 46 67 88 193 449 530 1100 2620
2026-04-12 05:30 6.63 754 21900 (1994) 0 (1954) 772 5 46 67 88 193 449 530 1100 2620
2026-04-12 04:30 6.70 780 21900 (1994) 0 (1954) 772 5 46 67 88 193 449 530 1100 2620
2026-04-12 03:30 6.78 809 21900 (1994) 0 (1954) 772 5 46 67 88 193 449 530 1100 2620
2026-04-12 02:30 6.87 843 21900 (1994) 0 (1954) 772 5 46 67 88 193 449 530 1100 2620
2026-04-12 01:30 6.93 866 21900 (1994) 0 (1954) 772 5 46 67 88 193 449 530 1100 2620
2026-04-12 00:30 7.01 897 21900 (1994) 0 (1954) 772 5 46 67 88 193 449 530 1100 2620
2026-04-11 23:30 7.09 929 21900 (1994) 0 (1954) 772 5 46 67 88 193 449 530 1100 2620
2026-04-11 22:30 7.15 953 21200 (1994) 0 (1954) 813 4 44 73 101 194 428 592 1340 3230
2026-04-11 21:30 7.22 982 21200 (1994) 0 (1954) 813 4 44 73 101 194 428 592 1340 3230
2026-04-11 20:30 7.28 1010 21200 (1994) 0 (1954) 813 4 44 73 101 194 428 592 1340 3230
2026-04-11 19:30 7.35 1040 21200 (1994) 0 (1954) 813 4 44 73 101 194 428 592 1340 3230
2026-04-11 18:30 7.39 1050 21200 (1994) 0 (1954) 813 4 44 73 101 194 428 592 1340 3230
2026-04-11 17:30 7.46 1080 21200 (1994) 0 (1954) 813 4 44 73 101 194 428 592 1340 3230
2026-04-11 16:30 7.52 1110 21200 (1994) 0 (1954) 813 4 44 73 101 194 428 592 1340 3230
2026-04-11 15:30 7.59 1140 21200 (1994) 0 (1954) 813 4 44 73 101 194 428 592 1340 3230
2026-04-11 14:30 7.65 1170 21200 (1994) 0 (1954) 813 4 44 73 101 194 428 592 1340 3230
2026-04-11 13:30 7.72 1210 21200 (1994) 0 (1954) 813 4 44 73 101 194 428 592 1340 3230
2026-04-11 12:30 7.78 1240 21200 (1994) 0 (1954) 813 4 44 73 101 194 428 592 1340 3230
2026-04-11 11:30 7.84 1260 21200 (1994) 0 (1954) 813 4 44 73 101 194 428 592 1340 3230
2026-04-11 10:30 7.86 1270 21200 (1994) 0 (1954) 813 4 44 73 101 194 428 592 1340 3230
2026-04-11 09:30 7.86 1270 21200 (1994) 0 (1954) 813 4 44 73 101 194 428 592 1340 3230
2026-04-11 08:30 7.80 1240 21200 (1994) 0 (1954) 813 4 44 73 101 194 428 592 1340 3230
2026-04-11 07:30 7.69 1190 21200 (1994) 0 (1954) 813 4 44 73 101 194 428 592 1340 3230
2026-04-11 06:30 7.49 1100 21200 (1994) 0 (1954) 813 4 44 73 101 194 428 592 1340 3230
2026-04-11 05:30 7.18 965 21200 (1994) 0 (1954) 813 4 44 73 101 194 428 592 1340 3230
2026-04-11 04:30 6.81 820 21200 (1994) 0 (1954) 813 4 44 73 101 194 428 592 1340 3230
2026-04-11 03:30 6.49 705 21200 (1994) 0 (1954) 813 4 44 73 101 194 428 592 1340 3230
2026-04-11 02:30 6.29 638 21200 (1994) 0 (1954) 813 4 44 73 101 194 428 592 1340 3230
2026-04-11 01:30 6.15 593 21200 (1994) 0 (1954) 813 4 44 73 101 194 428 592 1340 3230
2026-04-11 00:30 6.03 556 21200 (1994) 0 (1954) 813 4 44 73 101 194 428 592 1340 3230
2026-04-10 23:30 5.94 529 21200 (1994) 0 (1954) 813 4 44 73 101 194 428 592 1340 3230
2026-04-10 22:30 5.89 515 8410 (2008) 0 (1954) 479 4 44 68 87 183 391 579 979 1630
2026-04-10 21:30 5.89 515 8410 (2008) 0 (1954) 479 4 44 68 87 183 391 579 979 1630
2026-04-10 20:30 5.91 521 8410 (2008) 0 (1954) 479 4 44 68 87 183 391 579 979 1630
2026-04-10 19:30 5.93 526 8410 (2008) 0 (1954) 479 4 44 68 87 183 391 579 979 1630
2026-04-10 18:30 5.90 518 8410 (2008) 0 (1954) 479 4 44 68 87 183 391 579 979 1630
2026-04-10 17:30 5.81 492 8410 (2008) 0 (1954) 479 4 44 68 87 183 391 579 979 1630
2026-04-10 16:30 5.67 453 8410 (2008) 0 (1954) 479 4 44 68 87 183 391 579 979 1630
2026-04-10 15:30 5.50 408 8410 (2008) 0 (1954) 479 4 44 68 87 183 391 579 979 1630
2026-04-10 14:30 5.30 359 8410 (2008) 0 (1954) 479 4 44 68 87 183 391 579 979 1630
2026-04-10 13:30 5.14 322 8410 (2008) 0 (1954) 479 4 44 68 87 183 391 579 979 1630
2026-04-10 12:30 4.96 283 8410 (2008) 0 (1954) 479 4 44 68 87 183 391 579 979 1630
2026-04-10 11:30 4.79 249 8410 (2008) 0 (1954) 479 4 44 68 87 183 391 579 979 1630
2026-04-10 10:30 4.74 239 8410 (2008) 0 (1954) 479 4 44 68 87 183 391 579 979 1630
2026-04-10 09:30 4.71 234 8410 (2008) 0 (1954) 479 4 44 68 87 183 391 579 979 1630
2026-04-10 08:30 4.68 228 8410 (2008) 0 (1954) 479 4 44 68 87 183 391 579 979 1630
2026-04-10 07:30 4.67 226 8410 (2008) 0 (1954) 479 4 44 68 87 183 391 579 979 1630
2026-04-10 06:30 4.66 224 8410 (2008) 0 (1954) 479 4 44 68 87 183 391 579 979 1630
2026-04-10 05:30 4.67 226 8410 (2008) 0 (1954) 479 4 44 68 87 183 391 579 979 1630
2026-04-10 04:30 4.68 228 8410 (2008) 0 (1954) 479 4 44 68 87 183 391 579 979 1630
2026-04-10 03:30 4.69 230 8410 (2008) 0 (1954) 479 4 44 68 87 183 391 579 979 1630
2026-04-10 02:30 4.70 232 8410 (2008) 0 (1954) 479 4 44 68 87 183 391 579 979 1630
2026-04-10 01:30 4.70 232 8410 (2008) 0 (1954) 479 4 44 68 87 183 391 579 979 1630
2026-04-10 00:30 4.71 234 8410 (2008) 0 (1954) 479 4 44 68 87 183 391 579 979 1630
2026-04-09 23:30 4.72 236 8410 (2008) 0 (1954) 479 4 44 68 87 183 391 579 979 1630

A total of 737 rows are displayed for years 1924 through 2025.